Time;durP1;ratioP1;P1;durP2;ratioP2;P2;SDS_P1;SDS_P2;PMS_P1;PMS_P2;Temp;Humidity;BMP_temperature;BMP_pressure;BME280_temperature;BME280_humidity;BME280_pressure;Samples;Min_cycle;Max_cycle;Signal;HPM_P1;HPM_P2
2021/12/09 00:01:13;;;;;;;18.65;6.63;;;;;;;4.27;74.26;99956.81;5076471;28;20127;-66
2021/12/09 00:03:41;;;;;;;16.38;6.47;;;;;;;4.22;74.53;99962.50;5088038;28;20096;-66
2021/12/09 00:06:11;;;;;;;18.40;6.32;;;;;;;4.17;74.18;99954.16;5096175;28;20557;-66
2021/12/09 00:08:41;;;;;;;15.13;5.88;;;;;;;4.16;74.41;99955.13;5096346;28;20040;-66
2021/12/09 00:11:08;;;;;;;16.88;5.82;;;;;;;4.17;74.49;99953.34;5096379;28;20064;-66
2021/12/09 00:13:36;;;;;;;17.17;5.75;;;;;;;4.15;74.13;99955.28;5111650;28;20043;-68
2021/12/09 00:16:03;;;;;;;21.27;5.70;;;;;;;4.14;74.55;99966.72;5094046;28;20048;-66
2021/12/09 00:18:30;;;;;;;23.42;6.10;;;;;;;4.14;74.46;99956.22;5074785;28;20094;-66
2021/12/09 00:20:57;;;;;;;17.65;5.68;;;;;;;4.20;74.34;99955.69;5075987;28;20051;-67
2021/12/09 00:23:24;;;;;;;20.15;6.38;;;;;;;4.21;74.26;99968.69;5094560;28;20044;-66
2021/12/09 00:25:51;;;;;;;19.02;5.68;;;;;;;4.25;73.93;99963.19;5111403;28;20060;-66
2021/12/09 00:28:18;;;;;;;18.95;5.60;;;;;;;4.25;73.81;99955.31;5077572;28;20039;-67
2021/12/09 00:30:45;;;;;;;16.00;4.97;;;;;;;4.23;74.17;99960.69;5081209;28;20082;-67
2021/12/09 00:33:15;;;;;;;28.55;6.22;;;;;;;4.29;74.16;99961.94;5095321;28;20047;-66
2021/12/09 00:35:48;;;;;;;20.40;5.53;;;;;;;4.33;74.31;99955.47;5094890;28;20044;-67
2021/12/09 00:38:33;;;;;;;16.60;5.70;;;;;;;4.33;74.02;99952.84;5095391;28;20040;-66
2021/12/09 00:41:04;;;;;;;17.10;5.35;;;;;;;4.34;74.21;99954.50;5094567;28;20127;-68
2021/12/09 00:43:31;;;;;;;19.30;5.32;;;;;;;4.48;72.96;99951.53;5111278;28;20051;-68
2021/12/09 00:45:58;;;;;;;19.88;5.60;;;;;;;4.43;73.71;99953.72;5094513;28;20576;-68
2021/12/09 00:48:26;;;;;;;16.67;5.18;;;;;;;4.42;73.57;99955.50;5094295;28;20048;-68
2021/12/09 00:50:54;;;;;;;20.48;5.72;;;;;;;4.52;73.23;99954.72;5111283;28;20171;-68
2021/12/09 00:53:21;;;;;;;17.55;5.47;;;;;;;4.48;73.92;99956.78;5110770;28;20044;-69
2021/12/09 00:55:49;;;;;;;21.15;5.15;;;;;;;4.43;73.57;99957.16;5094369;28;20048;-69
2021/12/09 00:58:16;;;;;;;26.63;5.70;;;;;;;4.40;74.05;99961.84;5094938;28;20040;-68
2021/12/09 01:00:43;;;;;;;20.42;5.47;;;;;;;4.44;74.05;99958.00;5074036;28;20040;-69
2021/12/09 01:03:10;;;;;;;16.88;5.32;;;;;;;4.46;74.07;99963.09;5083269;28;20048;-69
2021/12/09 01:05:37;;;;;;;18.88;5.32;;;;;;;4.48;74.03;99966.47;5094475;28;20046;-68
2021/12/09 01:08:05;;;;;;;16.55;5.25;;;;;;;4.45;73.51;99956.22;5095061;28;20514;-68
2021/12/09 01:10:32;;;;;;;15.68;4.90;;;;;;;4.46;73.60;99963.97;5077427;28;20122;-68
2021/12/09 01:13:00;;;;;;;22.17;5.63;;;;;;;4.48;73.52;99972.53;5094094;28;20044;-68
2021/12/09 01:15:27;;;;;;;18.65;5.13;;;;;;;4.54;72.65;99971.16;5094898;28;20042;-68
2021/12/09 01:17:55;;;;;;;22.55;5.38;;;;;;;4.44;73.65;99955.38;5110820;28;20040;-68
2021/12/09 01:20:25;;;;;;;16.15;5.22;;;;;;;4.38;73.60;99958.53;5093664;28;20059;-67
2021/12/09 01:22:54;;;;;;;22.98;6.47;;;;;;;4.36;73.75;99965.72;5095043;28;20054;-67
2021/12/09 01:25:23;;;;;;;16.13;5.03;;;;;;;4.28;73.99;99976.06;5110483;28;20044;-68
2021/12/09 01:27:53;;;;;;;22.50;5.78;;;;;;;4.25;74.06;99977.13;5092966;28;20056;-68
2021/12/09 01:30:22;;;;;;;18.35;6.10;;;;;;;4.24;74.14;99983.38;5094691;28;20142;-67
2021/12/09 01:32:53;;;;;;;20.35;5.57;;;;;;;4.11;74.57;99991.47;5090663;28;20082;-68
2021/12/09 01:35:27;;;;;;;23.95;5.63;;;;;;;4.06;74.91;99987.53;5092896;28;20055;-67
2021/12/09 01:37:58;;;;;;;16.83;5.38;;;;;;;4.06;74.95;100001.50;5085168;28;20044;-67
2021/12/09 01:40:27;;;;;;;18.90;5.30;;;;;;;4.07;75.46;99997.09;5074360;28;20037;-67
2021/12/09 01:42:55;;;;;;;24.08;5.93;;;;;;;4.02;75.07;99998.31;5073015;28;20032;-67
2021/12/09 01:45:22;;;;;;;22.13;6.18;;;;;;;4.03;75.01;99997.34;5072766;28;20058;-67
2021/12/09 01:47:49;;;;;;;17.23;5.90;;;;;;;4.03;75.18;99999.97;5074197;28;20447;-67
2021/12/09 01:50:16;;;;;;;20.13;6.28;;;;;;;4.01;75.32;99996.63;5074131;28;20490;-67
2021/12/09 01:52:43;;;;;;;18.63;5.70;;;;;;;3.99;75.13;99998.56;5101059;28;20036;-68
2021/12/09 01:55:13;;;;;;;17.30;5.38;;;;;;;3.96;75.07;100000.63;5092982;28;20131;-67
2021/12/09 01:57:40;;;;;;;19.15;6.03;;;;;;;3.94;75.54;100000.75;5092914;28;20522;-67
2021/12/09 02:00:11;;;;;;;20.00;5.47;;;;;;;3.92;75.43;100009.72;5109643;28;20032;-68
2021/12/09 02:02:42;;;;;;;19.67;5.35;;;;;;;3.88;76.21;100006.53;5109730;28;20048;-68
2021/12/09 02:05:23;;;;;;;16.88;5.40;;;;;;;3.85;75.46;100004.16;5092209;28;20101;-67
2021/12/09 02:07:50;;;;;;;20.40;5.78;;;;;;;3.82;75.54;100012.25;5092922;28;20523;-67
2021/12/09 02:10:18;;;;;;;17.88;5.10;;;;;;;3.81;75.60;100006.19;5074744;28;20445;-67
2021/12/09 02:12:48;;;;;;;20.80;5.55;;;;;;;3.68;75.96;100009.97;5094097;28;20040;-67
2021/12/09 02:15:17;;;;;;;20.50;5.70;;;;;;;3.65;75.99;100011.06;5092818;28;20127;-67
2021/12/09 02:17:44;;;;;;;19.40;5.55;;;;;;;3.64;76.44;100007.59;5092802;28;20053;-67
2021/12/09 02:20:11;;;;;;;20.27;5.53;;;;;;;3.65;76.09;100004.00;5093573;28;20047;-67
2021/12/09 02:22:39;;;;;;;20.40;5.47;;;;;;;3.64;76.05;100004.97;5109478;28;20047;-67
2021/12/09 02:25:06;;;;;;;15.40;5.57;;;;;;;3.61;76.02;99996.53;5075661;28;20055;-67
2021/12/09 02:27:32;;;;;;;18.65;5.93;;;;;;;3.57;76.46;100005.63;5093181;28;20058;-67
2021/12/09 02:29:59;;;;;;;20.60;6.25;;;;;;;3.48;76.29;100001.16;5092436;28;20139;-68
2021/12/09 02:32:26;;;;;;;17.45;5.95;;;;;;;3.54;76.32;100000.63;5092582;28;20048;-67
2021/12/09 02:34:53;;;;;;;18.23;5.40;;;;;;;3.54;76.32;100009.31;5093459;28;20058;-67
2021/12/09 02:37:20;;;;;;;18.90;5.53;;;;;;;3.43;77.08;99994.47;5107295;28;20435;-67
2021/12/09 02:39:47;;;;;;;20.83;6.63;;;;;;;3.46;76.90;99999.47;5092296;28;20044;-67
2021/12/09 02:42:17;;;;;;;23.58;5.72;;;;;;;3.42;77.12;100000.69;5093388;28;20068;-67
2021/12/09 02:44:45;;;;;;;20.52;6.18;;;;;;;3.39;76.98;99997.47;5092111;28;20130;-67
2021/12/09 02:47:12;;;;;;;16.85;5.43;;;;;;;3.41;77.07;99996.38;5092288;28;20085;-67
2021/12/09 02:49:39;;;;;;;24.25;6.53;;;;;;;3.48;76.67;100001.16;5091920;28;20044;-67
2021/12/09 02:52:06;;;;;;;16.33;5.65;;;;;;;3.37;77.02;100004.66;5108945;28;20040;-67
2021/12/09 02:54:33;;;;;;;19.13;6.13;;;;;;;3.30;77.31;99995.63;5092167;28;20043;-67
2021/12/09 02:57:04;;;;;;;18.58;5.75;;;;;;;3.33;nan;100001.44;5093170;28;20039;-67
2021/12/09 02:59:32;;;;;;;18.05;6.00;;;;;;;3.29;77.43;99996.56;5076840;28;20040;-67
2021/12/09 03:02:01;;;;;;;25.30;6.88;;;;;;;3.51;76.86;100006.97;5072958;28;20044;-67
2021/12/09 03:04:47;;;;;;;22.80;6.63;;;;;;;3.33;77.18;99997.97;5090985;28;20139;-67
2021/12/09 03:09:55;;;;;;;19.13;6.18;;;;;;;3.18;nan;100006.13;5076067;27;20410;-66
2021/12/09 03:12:26;;;;;;;16.80;6.05;;;;;;;3.18;78.08;99997.44;5068772;28;20139;-67
2021/12/09 03:14:53;;;;;;;18.95;6.57;;;;;;;3.13;78.26;99992.56;5069072;28;20044;-68
2021/12/09 03:17:20;;;;;;;23.17;6.00;;;;;;;3.14;78.00;99994.22;5068440;28;20048;-66
2021/12/09 03:19:48;;;;;;;16.48;6.40;;;;;;;3.07;78.03;99990.44;5069633;28;20047;-66
2021/12/09 03:22:16;;;;;;;20.38;6.50;;;;;;;3.03;77.99;99994.25;5052307;28;20099;-66
2021/12/09 03:24:42;;;;;;;18.05;5.90;;;;;;;2.97;78.24;99985.13;5068513;28;20508;-66
2021/12/09 03:27:09;;;;;;;16.95;6.40;;;;;;;2.97;78.54;99990.34;5062015;28;20102;-67
2021/12/09 03:29:36;;;;;;;15.93;5.70;;;;;;;2.94;78.70;99990.59;5068086;28;20043;-66
2021/12/09 03:32:06;;;;;;;26.15;6.47;;;;;;;2.93;78.70;99981.09;5069645;28;20052;-68
2021/12/09 03:34:35;;;;;;;20.98;6.13;;;;;;;2.98;78.57;99986.75;5050079;28;20043;-67
2021/12/09 03:37:08;;;;;;;19.92;6.22;;;;;;;2.93;78.61;99993.31;5069848;28;20045;-67
2021/12/09 03:39:39;;;;;;;24.15;6.80;;;;;;;3.08;78.17;99989.50;5067805;28;20374;-67
2021/12/09 03:42:09;;;;;;;20.58;6.68;;;;;;;3.14;77.99;99990.78;5068019;28;20045;-67
2021/12/09 03:44:37;;;;;;;20.05;5.90;;;;;;;2.96;78.52;99988.69;5067971;28;20127;-67
2021/12/09 03:47:06;;;;;;;19.75;6.05;;;;;;;2.99;78.33;99985.00;5069044;28;20052;-67
2021/12/09 03:49:33;;;;;;;20.70;6.63;;;;;;;2.90;78.68;99983.13;5048457;28;20045;-66
2021/12/09 03:52:00;;;;;;;16.45;5.80;;;;;;;2.93;78.74;99995.94;5047907;28;20379;-66
2021/12/09 03:54:27;;;;;;;18.33;6.70;;;;;;;2.81;79.22;100000.41;5066186;28;20453;-66
2021/12/09 03:56:54;;;;;;;18.73;5.88;;;;;;;2.83;78.95;100001.09;5067905;28;20040;-67
2021/12/09 03:59:21;;;;;;;19.77;6.15;;;;;;;2.83;79.03;100001.09;5069112;28;20513;-67
2021/12/09 04:01:49;;;;;;;16.02;5.97;;;;;;;2.75;79.01;99995.63;5068271;28;20045;-66
2021/12/09 04:04:16;;;;;;;23.42;6.53;;;;;;;2.72;79.54;99998.50;5067437;28;20075;-66
2021/12/09 04:06:44;;;;;;;18.25;5.88;;;;;;;2.74;79.00;99993.97;5068661;28;20106;-66
2021/12/09 04:09:13;;;;;;;16.95;5.82;;;;;;;2.69;79.52;99992.56;5068226;28;20468;-66
2021/12/09 04:11:40;;;;;;;19.23;6.53;;;;;;;2.67;79.56;99991.00;5068713;28;20045;-66
2021/12/09 04:14:08;;;;;;;24.08;5.95;;;;;;;2.68;79.61;100003.16;5067591;28;20077;-67
2021/12/09 04:16:36;;;;;;;21.85;6.65;;;;;;;2.63;79.76;99997.44;5067333;28;20493;-66
2021/12/09 04:19:06;;;;;;;17.40;6.53;;;;;;;2.64;79.75;100001.75;5067691;28;20045;-67
2021/12/09 04:21:34;;;;;;;22.92;6.53;;;;;;;2.64;79.68;100006.97;5054935;28;20049;-66
2021/12/09 04:24:07;;;;;;;19.83;6.30;;;;;;;2.64;79.93;100009.59;5054167;28;20523;-67
2021/12/09 04:26:36;;;;;;;17.23;6.72;;;;;;;2.58;80.26;100010.06;5054242;28;20090;-67
2021/12/09 04:29:05;;;;;;;23.90;6.30;;;;;;;2.54;80.26;100009.47;5053818;28;20083;-66
2021/12/09 04:31:32;;;;;;;22.63;6.90;;;;;;;2.58;80.22;100017.91;5053355;28;20048;-67
2021/12/09 04:33:59;;;;;;;25.27;7.53;;;;;;;2.56;80.47;100019.81;5037434;28;20044;-67
2021/12/09 04:36:26;;;;;;;20.95;7.03;;;;;;;2.59;80.25;100019.59;5054930;28;20048;-66
2021/12/09 04:38:55;;;;;;;18.20;6.70;;;;;;;2.45;80.80;100016.25;5054933;28;20051;-66
2021/12/09 04:41:24;;;;;;;20.77;7.27;;;;;;;2.45;80.69;100025.91;5055191;28;20049;-66
2021/12/09 04:43:50;;;;;;;19.13;6.85;;;;;;;2.42;80.50;100020.88;5054846;28;20310;-66
2021/12/09 04:46:17;;;;;;;20.77;7.07;;;;;;;2.46;81.07;100022.34;5053704;28;20571;-66
2021/12/09 04:48:44;;;;;;;20.60;7.10;;;;;;;2.41;81.13;100022.69;5054481;28;20037;-66
2021/12/09 04:51:11;;;;;;;21.00;7.28;;;;;;;2.43;80.64;100031.25;5054736;28;20037;-66
2021/12/09 04:53:38;;;;;;;19.83;6.28;;;;;;;2.41;81.25;100030.53;5054818;28;20052;-66
2021/12/09 04:56:05;;;;;;;19.60;6.53;;;;;;;2.36;81.15;100035.28;5037178;28;20083;-66
2021/12/09 04:58:33;;;;;;;19.90;6.35;;;;;;;2.36;80.88;100040.53;5053502;28;20037;-66
2021/12/09 05:01:04;;;;;;;22.67;6.82;;;;;;;2.38;80.82;100041.25;5054617;28;20073;-66
2021/12/09 05:03:31;;;;;;;;;;;;;;;2.41;80.79;100042.81;5052366;28;20072;-67
2021/12/09 05:05:58;;;;;;;19.88;6.82;;;;;;;2.34;81.17;100050.28;5054634;28;19966;-66
2021/12/09 05:08:28;;;;;;;20.00;6.75;;;;;;;2.36;80.85;100052.78;5054173;28;20547;-68
2021/12/09 05:11:07;;;;;;;19.45;6.78;;;;;;;2.29;81.19;100053.28;5054344;28;20044;-66
2021/12/09 05:13:37;;;;;;;18.58;6.57;;;;;;;2.28;81.09;100062.06;5053112;28;20123;-65
2021/12/09 05:16:06;;;;;;;27.02;6.60;;;;;;;2.29;81.28;100058.50;5054238;28;20052;-68
2021/12/09 05:18:35;;;;;;;16.45;6.15;;;;;;;2.26;81.82;100076.22;5052937;28;20044;-68
2021/12/09 05:21:04;;;;;;;20.92;6.70;;;;;;;2.28;81.73;100075.16;5037116;28;20099;-68
2021/12/09 05:23:31;;;;;;;23.48;7.30;;;;;;;2.26;81.19;100076.22;5053319;28;20076;-68
2021/12/09 05:25:58;;;;;;;26.08;7.18;;;;;;;2.24;81.24;100078.97;5036398;28;20045;-67
2021/12/09 05:28:32;;;;;;;20.52;7.30;;;;;;;2.29;81.50;100081.22;5052539;28;20045;-65
2021/12/09 05:33:46;;;;;;;20.05;7.05;;;;;;;2.17;81.94;100074.31;5047583;28;20136;-66
2021/12/09 05:36:13;;;;;;;22.35;7.18;;;;;;;2.16;81.83;100076.06;5034970;28;20086;-68
2021/12/09 05:38:40;;;;;;;20.20;6.95;;;;;;;2.13;82.29;100091.16;5052144;28;20419;-68
2021/12/09 05:41:07;;;;;;;17.60;6.95;;;;;;;2.11;81.89;100084.28;5053364;28;20087;-68
2021/12/09 05:43:37;;;;;;;23.40;6.93;;;;;;;2.07;82.21;100093.31;5052334;28;20045;-67
2021/12/09 05:46:04;;;;;;;17.98;7.07;;;;;;;2.05;82.87;100099.59;5052506;28;20056;-68
2021/12/09 05:48:32;;;;;;;19.42;6.40;;;;;;;2.08;82.42;100108.06;5052343;28;20126;-68
2021/12/09 05:50:59;;;;;;;23.42;7.75;;;;;;;2.08;82.46;100110.69;5053717;28;20045;-67
2021/12/09 05:53:26;;;;;;;26.95;6.88;;;;;;;2.16;82.27;100107.47;5052375;28;20057;-67
2021/12/09 05:55:53;;;;;;;20.60;7.50;;;;;;;2.09;82.57;100106.25;5053328;28;20490;-67
2021/12/09 05:58:22;;;;;;;24.77;7.15;;;;;;;2.16;82.69;100107.47;5053367;28;20055;-67
2021/12/09 06:00:51;;;;;;;18.80;7.00;;;;;;;2.08;82.16;100100.22;5069086;28;20055;-67
2021/12/09 06:03:19;;;;;;;18.73;6.47;;;;;;;2.23;81.86;100105.25;5052459;28;20044;-68
2021/12/09 06:05:47;;;;;;;18.05;6.63;;;;;;;2.23;82.03;100105.25;5051574;28;20041;-67
2021/12/09 06:08:14;;;;;;;18.90;6.97;;;;;;;2.10;82.04;100100.09;5052485;28;20076;-67
2021/12/09 06:10:41;;;;;;;17.55;6.45;;;;;;;2.05;82.47;100110.06;5052384;28;20055;-67
2021/12/09 06:13:09;;;;;;;17.80;6.72;;;;;;;2.01;82.50;100112.09;5051922;28;20049;-67
2021/12/09 06:15:35;;;;;;;20.98;6.70;;;;;;;2.07;82.93;100113.41;5052300;28;20052;-67
2021/12/09 06:18:02;;;;;;;18.52;6.80;;;;;;;2.09;82.83;100111.50;5054363;28;20120;-67
2021/12/09 06:20:29;;;;;;;18.35;6.97;;;;;;;2.04;82.96;100108.41;5052736;28;20047;-66
2021/12/09 06:22:56;;;;;;;19.20;6.53;;;;;;;2.03;82.75;100106.75;5052694;28;20048;-66
2021/12/09 06:25:23;;;;;;;20.40;7.30;;;;;;;2.29;82.07;100110.84;5053128;28;20047;-67
2021/12/09 06:27:51;;;;;;;18.25;6.90;;;;;;;2.05;82.83;100100.44;5051438;28;20154;-67
2021/12/09 06:30:19;;;;;;;16.63;7.00;;;;;;;2.00;83.20;100097.34;5052477;28;20048;-67
2021/12/09 06:32:47;;;;;;;23.65;7.50;;;;;;;2.10;82.66;100105.34;5052562;28;20401;-67
2021/12/09 06:35:14;;;;;;;19.30;7.05;;;;;;;2.01;82.57;100106.03;5049788;28;20098;-67
2021/12/09 06:37:44;;;;;;;21.58;7.93;;;;;;;2.02;83.24;100112.91;5051242;28;20390;-67
2021/12/09 06:40:14;;;;;;;21.73;7.30;;;;;;;2.00;83.14;100112.19;5052611;28;20045;-67
2021/12/09 06:42:42;;;;;;;23.08;6.65;;;;;;;2.07;82.76;100114.25;5052300;28;20037;-66
2021/12/09 06:45:12;;;;;;;21.20;6.88;;;;;;;1.98;82.62;100114.09;5052266;28;20049;-67
2021/12/09 06:47:39;;;;;;;23.15;6.93;;;;;;;2.08;82.56;100115.91;5050614;28;20139;-66
2021/12/09 06:50:08;;;;;;;18.33;7.05;;;;;;;2.01;82.69;100111.25;5037800;28;20037;-67
2021/12/09 06:52:35;;;;;;;18.15;7.05;;;;;;;2.07;83.33;100126.47;5047780;28;20038;-66
2021/12/09 06:55:06;;;;;;;21.75;6.90;;;;;;;2.14;82.89;100121.63;5039532;28;20401;-67
2021/12/09 06:57:33;;;;;;;19.67;6.97;;;;;;;2.12;82.71;100119.13;5050961;28;20033;-67
2021/12/09 06:59:59;;;;;;;19.60;7.38;;;;;;;2.12;82.76;100124.38;5014596;28;20049;-66
2021/12/09 07:02:27;;;;;;;21.85;7.55;;;;;;;2.22;82.08;100124.50;5034511;28;20115;-66
2021/12/09 07:04:54;;;;;;;26.00;8.20;;;;;;;2.12;82.63;100116.50;5050742;28;20049;-66
2021/12/09 07:07:21;;;;;;;21.80;7.60;;;;;;;2.12;81.84;100116.50;5051254;28;20514;-66
2021/12/09 07:09:47;;;;;;;18.50;6.80;;;;;;;2.01;83.11;100114.69;5051518;28;20045;-66
2021/12/09 07:12:14;;;;;;;21.00;7.40;;;;;;;2.03;82.44;100123.25;5050807;28;20128;-67
2021/12/09 07:14:43;;;;;;;24.90;7.30;;;;;;;2.03;83.01;100111.97;5050743;28;20041;-67
2021/12/09 07:17:11;;;;;;;27.80;7.82;;;;;;;2.01;82.98;100108.63;5051720;28;20051;-66
2021/12/09 07:19:38;;;;;;;17.33;6.82;;;;;;;1.97;82.82;100117.66;5052197;28;20037;-67
2021/12/09 07:22:05;;;;;;;19.15;7.30;;;;;;;1.99;82.69;100110.53;5051099;28;20044;-66
2021/12/09 07:24:33;;;;;;;21.60;7.70;;;;;;;1.98;82.25;100120.16;5050955;28;20502;-67
2021/12/09 07:27:00;;;;;;;21.23;8.10;;;;;;;2.02;82.64;100124.22;5034369;28;20072;-67
2021/12/09 07:29:28;;;;;;;21.20;7.15;;;;;;;2.11;82.04;100117.44;5050879;28;20048;-66
2021/12/09 07:31:55;;;;;;;19.15;6.82;;;;;;;2.06;81.97;100117.00;5050704;28;20063;-66
2021/12/09 07:34:22;;;;;;;20.77;7.75;;;;;;;2.01;82.04;100127.78;5049993;28;20387;-67
2021/12/09 07:36:49;;;;;;;23.20;8.52;;;;;;;1.98;82.47;100135.03;5045879;28;20456;-67
2021/12/09 07:39:16;;;;;;;20.15;7.63;;;;;;;1.94;83.03;100130.97;5051621;28;20033;-66
2021/12/09 07:41:42;;;;;;;26.52;7.80;;;;;;;1.97;82.65;100131.56;5051420;28;20047;-66
2021/12/09 07:44:10;;;;;;;26.88;8.75;;;;;;;2.05;82.59;100137.06;5034204;28;20045;-66
2021/12/09 07:46:38;;;;;;;22.08;9.05;;;;;;;2.09;82.68;100140.28;5051082;28;20048;-66
2021/12/09 07:49:06;;;;;;;29.50;9.35;;;;;;;2.13;82.53;100141.75;5067390;28;20055;-66
2021/12/09 07:51:34;;;;;;;23.85;8.07;;;;;;;2.18;82.19;100139.59;5051054;28;20140;-67
2021/12/09 07:54:02;;;;;;;24.38;9.18;;;;;;;2.22;82.23;100150.66;5030976;28;20045;-66
2021/12/09 07:56:29;;;;;;;26.45;8.13;;;;;;;2.26;81.98;100150.34;5035361;28;20041;-67
2021/12/09 07:58:57;;;;;;;20.35;7.82;;;;;;;2.29;81.95;100146.66;5035940;28;20042;-67
2021/12/09 08:01:24;;;;;;;22.88;7.50;;;;;;;2.32;82.04;100148.22;5037812;28;20139;-67
2021/12/09 08:03:51;;;;;;;22.52;7.18;;;;;;;2.39;81.64;100154.66;5053073;28;20456;-67
2021/12/09 08:06:18;;;;;;;19.80;7.80;;;;;;;2.33;81.51;100145.50;5054264;28;20564;-67
2021/12/09 08:08:45;;;;;;;32.47;7.75;;;;;;;2.32;81.37;100138.56;5036921;28;20056;-67
2021/12/09 08:11:11;;;;;;;18.80;7.22;;;;;;;2.30;81.92;100138.69;5054363;28;20119;-67
2021/12/09 08:13:38;;;;;;;18.02;7.25;;;;;;;2.41;81.29;100145.72;5037782;28;20501;-67
2021/12/09 08:16:05;;;;;;;27.50;7.20;;;;;;;2.44;81.26;100145.50;5037680;28;20148;-67
2021/12/09 08:18:43;;;;;;;18.48;7.18;;;;;;;2.40;81.36;100148.47;5037662;28;20060;-67
2021/12/09 08:21:10;;;;;;;32.88;8.32;;;;;;;2.37;81.26;100140.84;5055219;28;20064;-67
2021/12/09 08:23:37;;;;;;;23.08;6.78;;;;;;;2.41;81.22;100148.34;5055330;28;20045;-66
2021/12/09 08:26:03;;;;;;;21.75;6.60;;;;;;;2.38;81.01;100158.22;5031398;28;20053;-67
2021/12/09 08:28:30;;;;;;;17.70;6.10;;;;;;;2.41;81.05;100158.81;5038358;28;20053;-66
2021/12/09 08:30:57;;;;;;;30.10;6.68;;;;;;;2.57;80.63;100155.06;5048906;28;20498;-67
2021/12/09 08:33:25;;;;;;;19.90;6.25;;;;;;;2.57;80.71;100155.88;5046996;28;20045;-67
2021/12/09 08:35:53;;;;;;;30.50;6.95;;;;;;;2.71;79.96;100156.59;5051303;28;20406;-67
2021/12/09 08:38:23;;;;;;;17.63;6.30;;;;;;;2.63;80.07;100154.56;5079624;28;20051;-67
2021/12/09 08:40:53;;;;;;;17.10;6.07;;;;;;;2.53;80.84;100154.44;5037323;28;20449;-66
2021/12/09 08:43:20;;;;;;;20.35;6.55;;;;;;;2.62;80.43;100155.50;5054713;28;20045;-66
2021/12/09 08:45:49;;;;;;;21.83;7.38;;;;;;;2.75;80.66;100161.50;5054407;28;20041;-62
2021/12/09 08:48:17;;;;;;;24.02;7.05;;;;;;;2.56;80.03;100159.44;5053408;28;20052;-62
2021/12/09 08:50:44;;;;;;;23.70;6.32;;;;;;;2.68;79.97;100162.91;5053561;28;20053;-62
2021/12/09 08:53:18;;;;;;;15.32;6.40;;;;;;;2.79;79.88;100162.94;5054518;28;20045;-62
2021/12/09 08:55:46;;;;;;;18.35;6.10;;;;;;;2.84;79.73;100160.78;5053016;28;20099;-62
2021/12/09 08:58:14;;;;;;;20.90;6.03;;;;;;;3.01;79.48;100169.13;5053203;28;20041;-62
2021/12/09 09:00:43;;;;;;;20.35;6.93;;;;;;;2.97;78.89;100167.72;5054479;28;20072;-62
2021/12/09 09:03:10;;;;;;;24.17;7.32;;;;;;;2.93;79.33;100174.13;5054510;28;20056;-62
2021/12/09 09:05:41;;;;;;;22.65;6.63;;;;;;;2.88;79.65;100177.94;5052067;28;20052;-62
2021/12/09 09:08:08;;;;;;;26.05;6.97;;;;;;;3.11;79.40;100177.09;5051432;28;20502;-62
2021/12/09 09:10:38;;;;;;;19.67;6.68;;;;;;;3.03;78.79;100177.69;5040920;28;20045;-62
2021/12/09 09:13:05;;;;;;;18.42;6.78;;;;;;;3.00;79.26;100186.66;5054205;28;20040;-66
2021/12/09 09:15:32;;;;;;;18.85;6.57;;;;;;;3.15;78.12;100192.47;5052776;28;20088;-66
2021/12/09 09:18:00;;;;;;;20.70;7.05;;;;;;;3.35;78.01;100190.91;5054208;28;20037;-66
2021/12/09 09:20:30;;;;;;;18.70;6.88;;;;;;;3.32;77.53;100183.28;5052374;28;20033;-66
2021/12/09 09:22:58;;;;;;;17.23;6.53;;;;;;;3.41;78.13;100192.22;5063356;28;20514;-66
2021/12/09 09:25:29;;;;;;;18.40;6.65;;;;;;;3.38;77.69;100182.78;5048350;28;20489;-66
2021/12/09 09:27:58;;;;;;;21.15;8.13;;;;;;;3.46;77.46;100184.81;5051160;28;20521;-66
2021/12/09 09:30:33;;;;;;;15.23;6.80;;;;;;;3.72;76.56;100177.47;5036788;28;20041;-66
2021/12/09 09:33:03;;;;;;;21.42;7.22;;;;;;;3.70;76.36;100192.53;5051063;28;20436;-66
2021/12/09 09:35:30;;;;;;;18.35;6.95;;;;;;;3.70;76.48;100192.53;5062085;28;20033;-66
2021/12/09 09:37:58;;;;;;;22.20;6.32;;;;;;;3.84;76.32;100188.78;5045867;28;20132;-67
2021/12/09 09:40:30;;;;;;;22.83;6.63;;;;;;;3.78;75.23;100194.53;5079993;28;20560;-66
2021/12/09 09:43:04;;;;;;;18.02;6.40;;;;;;;3.89;75.47;100196.28;5050866;28;20045;-67
2021/12/09 09:45:34;;;;;;;20.08;7.05;;;;;;;3.82;75.78;100193.31;5051436;28;20409;-66
2021/12/09 09:48:01;;;;;;;22.73;7.57;;;;;;;4.00;75.79;100211.97;5045125;28;20472;-66
2021/12/09 09:50:29;;;;;;;25.58;7.55;;;;;;;4.11;75.62;100201.47;5047506;28;20528;-67
2021/12/09 09:52:57;;;;;;;16.13;5.93;;;;;;;4.30;74.54;100208.66;5050427;28;20040;-67
2021/12/09 09:55:23;;;;;;;23.75;7.55;;;;;;;4.38;74.25;100201.00;5052166;28;20040;-67
2021/12/09 09:57:52;;;;;;;25.55;7.18;;;;;;;4.26;74.08;100199.38;5061534;28;20045;-66
2021/12/09 10:00:21;;;;;;;21.90;7.43;;;;;;;4.45;73.84;100210.97;5049525;28;20057;-66
2021/12/09 10:02:53;;;;;;;17.13;6.85;;;;;;;4.65;73.46;100198.81;5052595;28;20040;-66
2021/12/09 10:05:25;;;;;;;;;;;;;;;4.67;72.25;100216.09;5049308;28;20033;-66
2021/12/09 10:07:52;;;;;;;21.73;5.55;;;;;;;4.69;73.22;100205.47;5048091;28;20028;-65
2021/12/09 10:10:19;;;;;;;21.20;6.40;;;;;;;4.76;72.26;100203.97;5048620;28;20037;-65
2021/12/09 10:12:55;;;;;;;17.23;6.28;;;;;;;4.71;73.15;100206.16;5051126;28;20441;-66
2021/12/09 10:18:36;;;;;;;17.45;6.07;;;;;;;4.90;73.61;100194.94;5074071;27;20393;-67
2021/12/09 10:21:06;;;;;;;21.15;7.10;;;;;;;5.05;72.60;100192.78;5045743;28;20049;-68
2021/12/09 10:23:38;;;;;;;18.63;6.00;;;;;;;5.00;72.57;100186.13;5066204;28;20040;-67
2021/12/09 10:28:52;;;;;;;18.45;6.13;;;;;;;5.51;70.08;100175.63;5064653;28;20906;-68
2021/12/09 10:31:24;;;;;;;22.42;7.05;;;;;;;5.50;71.51;100176.63;5026874;28;20512;-67
2021/12/09 10:34:26;;;;;;;17.73;7.28;;;;;;;5.46;71.42;100185.75;5025990;28;20047;-67
2021/12/09 10:39:42;;;;;;;21.48;7.93;;;;;;;5.19;71.88;100179.28;5115236;27;20149;-67
2021/12/09 10:42:15;;;;;;;21.20;9.23;;;;;;;5.26;71.47;100172.53;5055744;28;20045;-67
2021/12/09 10:44:46;;;;;;;23.35;9.30;;;;;;;5.18;70.63;100167.94;5087459;28;20039;-67
2021/12/09 10:47:25;;;;;;;24.35;8.60;;;;;;;5.15;70.98;100164.75;5077268;28;20504;-66
2021/12/09 10:50:18;;;;;;;24.50;8.45;;;;;;;4.90;71.33;100168.66;5103051;28;20484;-67
2021/12/09 10:52:52;;;;;;;19.95;7.78;;;;;;;5.07;72.55;100160.13;5101145;28;20048;-67
2021/12/09 10:55:30;;;;;;;21.75;7.78;;;;;;;5.17;71.02;100160.19;5073862;28;20047;-66
2021/12/09 10:58:06;;;;;;;26.83;8.25;;;;;;;5.05;71.64;100158.59;5064975;28;20520;-67
2021/12/09 11:03:19;;;;;;;25.52;8.77;;;;;;;4.80;72.02;100148.41;5138490;27;20409;-68
2021/12/09 11:06:01;;;;;;;24.80;8.65;;;;;;;4.87;73.22;100146.06;5087977;28;20047;-68
2021/12/09 11:08:33;;;;;;;22.65;7.90;;;;;;;5.11;72.72;100142.28;5118144;28;20523;-67
2021/12/09 11:11:05;;;;;;;23.13;7.57;;;;;;;5.19;71.75;100131.94;5096202;28;20043;-67
2021/12/09 11:13:40;;;;;;;19.98;7.22;;;;;;;5.13;71.19;100140.34;5107653;28;20051;-66
2021/12/09 11:16:08;;;;;;;19.77;6.55;;;;;;;5.15;72.91;100133.19;5109987;28;20499;-66
2021/12/09 11:18:41;;;;;;;28.55;10.63;;;;;;;5.11;71.87;100135.25;5107405;27;20051;-66
2021/12/09 11:21:21;;;;;;;21.20;6.88;;;;;;;5.11;72.01;100130.00;5083262;28;20043;-66
2021/12/09 11:23:55;;;;;;;21.35;7.32;;;;;;;5.17;72.86;100128.63;5091650;28;20567;-67
2021/12/09 11:34:48;;;;;;;25.95;7.00;;;;;;;5.14;72.28;100121.00;5127911;27;20352;-68
2021/12/09 11:37:37;;;;;;;17.75;7.78;;;;;;;5.21;72.50;100116.88;5120803;28;20122;-69
2021/12/09 11:42:52;;;;;;;18.80;6.20;;;;;;;5.37;72.47;100114.56;5122709;27;20176;-67
2021/12/09 11:45:25;;;;;;;24.27;7.35;;;;;;;5.41;72.72;100107.22;5071171;28;20054;-68
2021/12/09 11:47:54;;;;;;;19.80;6.47;;;;;;;5.53;71.63;100107.91;5064932;28;20135;-66
2021/12/09 11:50:28;;;;;;;20.38;6.03;;;;;;;5.46;71.82;100109.47;5079737;28;20070;-68
2021/12/09 11:52:58;;;;;;;25.63;7.18;;;;;;;5.48;70.72;100097.81;5101740;28;20040;-67
2021/12/09 11:55:33;;;;;;;18.00;6.50;;;;;;;5.43;71.82;100102.66;5105232;28;20038;-66
2021/12/09 11:58:08;;;;;;;18.38;7.22;;;;;;;5.46;72.02;100099.75;5081598;28;20066;-66
2021/12/09 12:13:03;;;;;;;20.65;5.40;;;;;;;5.43;72.09;100099.19;5129320;27;20463;-68
2021/12/09 12:21:04;;;;;;;19.73;5.50;;;;;;;5.41;70.27;100095.88;5108911;27;20129;-66
2021/12/09 12:24:33;;;;;;;19.48;5.95;;;;;;;5.54;70.21;100091.16;5066501;28;20044;-66